createdAt,value
2023-05-18T00:00:29.025Z,8.44
2023-05-18T00:02:56.316Z,8.39
2023-05-18T00:05:23.528Z,8.44
2023-05-18T00:07:51.824Z,8.46
2023-05-18T00:10:19.239Z,8.52
2023-05-18T00:12:47.516Z,8.60
2023-05-18T00:15:14.536Z,8.69
2023-05-18T00:17:41.495Z,8.70
2023-05-18T00:20:09.823Z,8.41
2023-05-18T00:22:36.794Z,8.49
2023-05-18T00:25:05.747Z,8.63
2023-05-18T00:27:32.612Z,8.75
2023-05-18T00:29:59.539Z,8.86
2023-05-18T00:32:26.479Z,8.98
2023-05-18T00:34:53.399Z,9.03
2023-05-18T00:37:20.360Z,9.08
2023-05-18T00:39:47.525Z,9.07
2023-05-18T00:42:15.990Z,9.07
2023-05-18T00:44:42.966Z,9.10
2023-05-18T00:47:10.040Z,9.05
2023-05-18T00:49:38.043Z,9.00
2023-05-18T00:52:06.066Z,9.03
2023-05-18T00:54:33.560Z,9.03
2023-05-18T00:57:01.126Z,9.09
2023-05-18T00:59:31.060Z,9.17
2023-05-18T01:01:58.458Z,9.23
2023-05-18T01:04:25.511Z,9.28
2023-05-18T01:06:52.421Z,9.31
2023-05-18T01:09:19.276Z,9.36
2023-05-18T01:12:00.195Z,9.46
2023-05-18T01:14:38.087Z,9.53
2023-05-18T01:17:16.222Z,9.61
2023-05-18T01:20:22.078Z,9.69
2023-05-18T01:23:06.125Z,9.68
2023-05-18T01:25:46.121Z,9.70
2023-05-18T01:28:20.357Z,9.74
2023-05-18T01:30:48.612Z,9.75
2023-05-18T01:33:15.746Z,9.72
2023-05-18T01:35:42.655Z,9.71
2023-05-18T01:38:09.855Z,9.71
2023-05-18T01:40:52.465Z,9.64
2023-05-18T01:44:37.341Z,9.65
2023-05-18T01:47:12.520Z,9.76
2023-05-18T01:49:48.047Z,10.05
2023-05-18T01:52:19.733Z,9.93
2023-05-18T01:54:54.770Z,9.98
2023-05-18T01:58:39.405Z,9.99
2023-05-18T02:01:09.835Z,10.04
2023-05-18T02:03:39.019Z,10.11
2023-05-18T02:06:06.232Z,10.14
2023-05-18T02:08:33.247Z,10.16
2023-05-18T02:11:00.408Z,10.16
2023-05-18T02:13:27.896Z,10.18
2023-05-18T02:15:55.050Z,10.21
2023-05-18T02:18:23.820Z,10.24
2023-05-18T02:20:58.268Z,10.26
2023-05-18T02:23:25.168Z,10.26
2023-05-18T02:25:52.684Z,10.20
2023-05-18T02:29:34.456Z,10.11
2023-05-18T02:32:01.590Z,10.07
2023-05-18T02:34:29.185Z,10.04
2023-05-18T02:36:59.374Z,10.03
2023-05-18T02:39:26.474Z,10.02
2023-05-18T02:41:53.318Z,10.01
2023-05-18T02:44:21.052Z,9.99
2023-05-18T02:46:49.010Z,9.99
2023-05-18T02:49:16.095Z,10.00
2023-05-18T02:51:43.160Z,10.02
2023-05-18T02:54:12.309Z,9.92
2023-05-18T02:57:58.447Z,9.91
2023-05-18T03:00:42.871Z,9.82
2023-05-18T03:03:10.014Z,9.81
2023-05-18T03:05:37.308Z,9.72
2023-05-18T03:14:12.310Z,9.49
2023-05-18T03:17:08.051Z,9.44
2023-05-18T03:19:35.182Z,9.38
2023-05-18T03:22:02.265Z,9.37
2023-05-18T03:24:29.252Z,9.42
2023-05-18T03:26:58.158Z,9.45
2023-05-18T03:29:25.669Z,9.45
2023-05-18T03:31:53.190Z,9.43
2023-05-18T03:34:21.557Z,9.28
2023-05-18T03:36:48.574Z,9.20
2023-05-18T03:39:15.492Z,9.20
2023-05-18T03:41:42.452Z,9.26
2023-05-18T03:48:10.522Z,8.92
2023-05-18T03:50:39.519Z,8.96
2023-05-18T03:53:06.426Z,9.01
2023-05-18T03:55:33.357Z,9.01
2023-05-18T03:58:00.580Z,9.07
2023-05-18T04:00:27.433Z,9.11
2023-05-18T04:02:54.450Z,9.24
2023-05-18T04:05:24.767Z,9.37
2023-05-18T04:07:53.309Z,9.43
2023-05-18T04:10:20.214Z,9.41
2023-05-18T04:12:58.724Z,9.59
2023-05-18T04:15:25.853Z,9.71
2023-05-18T04:17:52.841Z,9.82
2023-05-18T04:20:19.862Z,9.86
2023-05-18T04:22:48.234Z,10.14
2023-05-18T04:25:17.478Z,10.43
2023-05-18T04:27:44.825Z,10.73
2023-05-18T04:30:13.915Z,10.93
2023-05-18T04:32:43.139Z,11.08
2023-05-18T04:35:11.934Z,11.08
2023-05-18T04:37:40.129Z,11.34
2023-05-18T04:40:11.572Z,11.76
2023-05-18T04:42:40.354Z,12.22
2023-05-18T04:45:08.381Z,12.44
2023-05-18T04:47:40.126Z,12.69
2023-05-18T04:50:17.062Z,13.17
2023-05-18T04:52:46.579Z,13.32
2023-05-18T04:55:14.169Z,13.10
2023-05-18T04:57:42.413Z,13.20
2023-05-18T05:00:11.088Z,13.44
2023-05-18T05:02:38.230Z,13.95
2023-05-18T05:05:06.162Z,14.29
2023-05-18T05:07:34.555Z,14.73
2023-05-18T05:10:01.441Z,14.86
2023-05-18T05:12:29.723Z,14.82
2023-05-18T05:14:58.114Z,15.12
2023-05-18T05:17:25.832Z,14.92
2023-05-18T05:19:52.778Z,15.41
2023-05-18T05:22:19.848Z,15.76
2023-05-18T05:24:47.099Z,15.83
2023-05-18T05:27:39.080Z,16.16
2023-05-18T05:30:09.312Z,16.20
2023-05-18T05:32:37.809Z,16.34
2023-05-18T05:35:07.604Z,16.94
2023-05-18T05:37:36.282Z,16.88
2023-05-18T05:40:04.508Z,17.32
2023-05-18T05:42:34.347Z,17.57
2023-05-18T05:45:02.850Z,17.08
2023-05-18T05:47:33.174Z,16.76
2023-05-18T05:50:00.318Z,17.00
2023-05-18T05:52:28.124Z,17.30
2023-05-18T05:54:55.311Z,17.53
2023-05-18T05:57:22.242Z,17.65
2023-05-18T05:59:49.723Z,17.58
2023-05-18T06:02:16.710Z,17.65
2023-05-18T06:04:47.856Z,17.90
2023-05-18T06:11:47.700Z,17.85
2023-05-18T06:14:16.934Z,18.46
2023-05-18T06:16:44.968Z,18.30
2023-05-18T06:19:12.056Z,18.48
2023-05-18T06:21:40.501Z,19.19
2023-05-18T06:24:09.182Z,19.03
2023-05-18T06:26:50.759Z,17.77
2023-05-18T06:29:38.261Z,16.46
2023-05-18T06:32:13.634Z,17.67
2023-05-18T06:34:43.719Z,17.36
2023-05-18T06:37:12.872Z,17.87
2023-05-18T06:39:39.782Z,18.82
2023-05-18T06:42:07.724Z,19.46
2023-05-18T06:44:34.977Z,19.73
2023-05-18T06:47:07.448Z,19.43
2023-05-18T06:49:34.589Z,19.01
2023-05-18T06:52:02.925Z,20.46
2023-05-18T06:54:31.418Z,21.29
2023-05-18T06:56:59.200Z,19.25
2023-05-18T06:59:27.284Z,18.04
2023-05-18T07:01:55.437Z,17.94
2023-05-18T07:04:23.024Z,17.69
2023-05-18T07:06:50.187Z,16.47
2023-05-18T07:09:17.116Z,17.92
2023-05-18T07:11:46.794Z,18.00
2023-05-18T07:14:14.921Z,18.07
2023-05-18T07:16:42.425Z,17.14
2023-05-18T07:19:09.539Z,17.19
2023-05-18T07:21:36.509Z,17.29
2023-05-18T07:24:04.339Z,15.52
2023-05-18T07:26:31.302Z,15.80
2023-05-18T07:28:59.771Z,17.37
2023-05-18T07:31:27.933Z,18.31
2023-05-18T07:33:54.837Z,17.88
2023-05-18T07:36:21.664Z,16.72
2023-05-18T07:38:48.524Z,15.97
2023-05-18T07:41:15.351Z,15.35
2023-05-18T07:43:42.708Z,16.07
2023-05-18T07:46:11.298Z,16.64
2023-05-18T07:48:53.575Z,17.42
2023-05-18T07:51:20.783Z,15.61
2023-05-18T07:53:48.812Z,15.13
2023-05-18T07:56:18.241Z,16.10
2023-05-18T07:58:46.078Z,17.01
2023-05-18T08:01:15.921Z,16.36
2023-05-18T08:04:59.833Z,16.08
2023-05-18T08:07:29.032Z,17.34
2023-05-18T08:09:57.165Z,17.84
2023-05-18T08:12:46.526Z,16.16
2023-05-18T08:15:13.779Z,15.96
2023-05-18T08:17:42.527Z,14.58
2023-05-18T08:20:11.495Z,15.37
2023-05-18T08:22:38.952Z,16.19
2023-05-18T08:25:07.175Z,16.75
2023-05-18T08:27:34.219Z,16.66
2023-05-18T08:30:51.763Z,16.26
2023-05-18T08:33:20.324Z,16.56
2023-05-18T08:35:47.364Z,16.01
2023-05-18T08:38:14.217Z,15.07
2023-05-18T08:40:50.972Z,15.14
2023-05-18T08:43:48.689Z,15.07
2023-05-18T08:46:23.010Z,15.88
2023-05-18T08:48:54.803Z,15.88
2023-05-18T08:51:22.906Z,16.29
2023-05-18T08:53:53.871Z,17.24
2023-05-18T08:56:48.011Z,17.87
2023-05-18T08:59:20.755Z,17.77
2023-05-18T09:01:49.402Z,15.80
2023-05-18T09:04:27.511Z,16.01
2023-05-18T09:07:26.790Z,17.11
2023-05-18T09:10:00.583Z,17.41
2023-05-18T09:12:28.936Z,18.08
2023-05-18T09:14:57.179Z,17.94
2023-05-18T09:17:24.385Z,17.87
2023-05-18T09:19:52.787Z,17.23
2023-05-18T09:22:20.228Z,17.83
2023-05-18T09:24:48.799Z,18.74
2023-05-18T09:27:16.875Z,19.11
2023-05-18T09:30:03.367Z,17.10
2023-05-18T09:32:35.885Z,16.98
2023-05-18T09:35:09.527Z,16.44
2023-05-18T09:37:36.816Z,15.93
2023-05-18T09:40:06.602Z,15.91
2023-05-18T09:43:07.390Z,15.93
2023-05-18T09:45:43.049Z,16.01
2023-05-18T09:48:10.820Z,16.01
2023-05-18T09:50:39.323Z,16.09
2023-05-18T09:53:08.484Z,16.07
2023-05-18T09:55:38.373Z,16.23
2023-05-18T09:58:07.691Z,16.87
2023-05-18T10:01:03.200Z,16.51
2023-05-18T10:03:35.350Z,16.04
2023-05-18T10:06:07.553Z,16.49
2023-05-18T10:08:37.472Z,16.64
2023-05-18T10:11:05.524Z,16.24
2023-05-18T10:13:34.739Z,16.25
2023-05-18T10:16:05.077Z,16.31
2023-05-18T10:18:35.626Z,16.16
2023-05-18T10:21:06.653Z,16.23
2023-05-18T10:23:37.182Z,16.49
2023-05-18T10:26:07.829Z,16.68
2023-05-18T10:28:42.339Z,17.15
2023-05-18T10:32:31.586Z,16.73
2023-05-18T10:35:01.448Z,16.60
2023-05-18T10:37:33.514Z,16.68
2023-05-18T10:40:03.260Z,16.35
2023-05-18T10:42:31.109Z,17.44
2023-05-18T10:44:58.257Z,17.99
2023-05-18T10:47:28.093Z,17.55
2023-05-18T10:49:55.873Z,17.93
2023-05-18T10:52:24.271Z,17.55
2023-05-18T10:54:53.801Z,17.05
2023-05-18T10:57:22.134Z,17.04
2023-05-18T10:59:49.399Z,17.51
2023-05-18T11:02:19.501Z,18.90
2023-05-18T11:04:47.566Z,19.25
2023-05-18T11:07:16.006Z,19.25
2023-05-18T11:09:44.340Z,19.52
2023-05-18T11:13:29.159Z,20.88
2023-05-18T11:16:08.906Z,17.27
2023-05-18T11:18:40.708Z,18.08
2023-05-18T11:21:54.588Z,18.19
2023-05-18T11:24:24.994Z,19.87
2023-05-18T11:27:15.513Z,18.48
2023-05-18T11:29:45.278Z,18.22
2023-05-18T11:32:30.455Z,17.87
2023-05-18T11:34:59.460Z,19.13
2023-05-18T11:37:48.595Z,18.72
2023-05-18T11:40:47.199Z,17.59
2023-05-18T11:43:21.562Z,17.69
2023-05-18T11:45:58.991Z,18.46
2023-05-18T11:48:28.879Z,19.45
2023-05-18T11:50:56.455Z,18.69
2023-05-18T11:53:24.989Z,19.87
2023-05-18T11:55:53.156Z,18.57
2023-05-18T11:58:21.249Z,18.72
2023-05-18T12:00:56.125Z,18.34
2023-05-18T12:03:25.997Z,17.38
2023-05-18T12:06:00.154Z,17.83
2023-05-18T12:08:27.650Z,17.80
2023-05-18T12:10:56.252Z,17.66
2023-05-18T12:13:51.267Z,17.31
2023-05-18T12:16:19.541Z,17.37
2023-05-18T12:18:49.467Z,17.59
2023-05-18T12:21:22.531Z,17.91
2023-05-18T12:23:49.464Z,17.75
2023-05-18T12:26:17.327Z,17.52
2023-05-18T12:28:44.458Z,17.98
2023-05-18T12:31:12.105Z,17.60
2023-05-18T12:33:39.053Z,18.01
2023-05-18T12:36:10.585Z,18.62
2023-05-18T12:38:38.923Z,18.51
2023-05-18T12:41:06.023Z,17.92
2023-05-18T12:43:36.916Z,18.27
2023-05-18T12:46:05.128Z,18.25
2023-05-18T12:48:36.565Z,17.88
2023-05-18T12:51:04.614Z,17.67
2023-05-18T12:53:42.482Z,17.78
2023-05-18T12:56:09.451Z,17.94
2023-05-18T12:58:36.266Z,18.02
2023-05-18T13:01:08.481Z,17.74
2023-05-18T13:03:38.735Z,18.15
2023-05-18T13:06:08.613Z,18.70
2023-05-18T13:08:37.370Z,18.28
2023-05-18T13:13:37.944Z,18.05
2023-05-18T13:16:15.254Z,18.49
2023-05-18T13:18:46.358Z,18.38
2023-05-18T13:21:14.028Z,18.08
2023-05-18T13:23:41.191Z,18.45
2023-05-18T13:26:13.002Z,18.45
2023-05-18T13:28:40.065Z,17.81
2023-05-18T13:31:07.027Z,18.00
2023-05-18T13:33:34.104Z,17.94
2023-05-18T13:36:01.121Z,18.34
2023-05-18T13:38:28.022Z,18.69
2023-05-18T13:40:55.597Z,18.64
2023-05-18T13:43:23.919Z,18.32
2023-05-18T13:45:50.840Z,18.06
2023-05-18T13:48:17.799Z,18.12
2023-05-18T13:50:45.086Z,18.45
2023-05-18T13:53:15.745Z,18.22
2023-05-18T13:55:42.689Z,18.63
2023-05-18T13:58:09.608Z,18.37
2023-05-18T14:00:38.516Z,18.35
2023-05-18T14:03:05.486Z,18.09
2023-05-18T14:05:32.363Z,18.08
2023-05-18T14:08:00.129Z,18.32
2023-05-18T14:10:26.987Z,18.50
2023-05-18T14:12:54.121Z,18.59
2023-05-18T14:15:21.135Z,18.91
2023-05-18T14:17:50.502Z,19.05
2023-05-18T14:20:17.843Z,18.15
2023-05-18T14:22:45.101Z,18.09
2023-05-18T14:25:12.017Z,18.52
2023-05-18T14:27:39.095Z,18.90
2023-05-18T14:30:08.077Z,18.96
2023-05-18T14:32:35.117Z,18.89
2023-05-18T14:35:04.121Z,18.37
2023-05-18T14:37:30.965Z,18.22
2023-05-18T14:39:57.831Z,18.05
2023-05-18T14:42:25.664Z,18.13
2023-05-18T14:44:52.645Z,18.05
2023-05-18T14:47:19.580Z,18.47
2023-05-18T14:49:46.464Z,18.25
2023-05-18T14:52:14.940Z,18.62
2023-05-18T14:54:42.824Z,18.86
2023-05-18T14:57:09.837Z,18.98
2023-05-18T14:59:36.812Z,18.76
2023-05-18T15:02:04.162Z,19.07
2023-05-18T15:04:30.954Z,18.60
2023-05-18T15:06:59.043Z,18.49
2023-05-18T15:09:27.675Z,18.56
2023-05-18T15:11:54.634Z,18.59
2023-05-18T15:14:22.091Z,18.89
2023-05-18T15:16:49.070Z,19.02
2023-05-18T15:19:15.982Z,18.49
2023-05-18T15:21:43.918Z,18.57
2023-05-18T15:24:11.129Z,18.34
2023-05-18T15:26:40.131Z,18.49
2023-05-18T15:29:07.461Z,18.44
2023-05-18T15:31:34.571Z,18.62
2023-05-18T15:34:01.421Z,18.51
2023-05-18T15:36:28.432Z,18.62
2023-05-18T15:38:55.394Z,18.28
2023-05-18T15:41:23.274Z,18.37
2023-05-18T15:43:51.466Z,18.47
2023-05-18T15:46:18.431Z,18.64
2023-05-18T15:48:45.324Z,18.68
2023-05-18T15:51:12.232Z,18.91
2023-05-18T15:53:39.270Z,18.92
2023-05-18T15:56:08.720Z,18.94
2023-05-18T15:58:36.074Z,19.11
2023-05-18T16:01:04.869Z,19.23
2023-05-18T16:03:31.878Z,19.05
2023-05-18T16:05:59.636Z,18.62
2023-05-18T16:08:26.421Z,18.39
2023-05-18T16:10:53.560Z,18.50
2023-05-18T16:13:20.651Z,18.51
2023-05-18T16:15:48.930Z,18.68
2023-05-18T16:18:17.366Z,18.72
2023-05-18T16:20:46.681Z,18.40
2023-05-18T16:23:13.784Z,18.36
2023-05-18T16:25:40.753Z,18.53
2023-05-18T16:28:07.856Z,18.51
2023-05-18T16:30:35.364Z,18.37
2023-05-18T16:33:02.349Z,18.41
2023-05-18T16:35:30.861Z,18.66
2023-05-18T16:37:57.789Z,18.44
2023-05-18T16:40:26.937Z,18.42
2023-05-18T16:42:54.403Z,18.25
2023-05-18T16:45:21.503Z,18.47
2023-05-18T16:47:48.609Z,18.59
2023-05-18T16:50:18.345Z,18.70
2023-05-18T16:52:48.337Z,18.76
2023-05-18T16:55:15.308Z,18.72
2023-05-18T16:57:42.758Z,18.78
2023-05-18T17:00:11.525Z,18.39
2023-05-18T17:02:38.969Z,18.56
2023-05-18T17:05:07.707Z,18.54
2023-05-18T17:07:35.229Z,18.67
2023-05-18T17:10:06.026Z,18.54
2023-05-18T17:12:32.926Z,18.52
2023-05-18T17:14:59.737Z,18.50
2023-05-18T17:17:26.707Z,18.60
2023-05-18T17:19:53.882Z,18.46
2023-05-18T17:22:21.932Z,18.53
2023-05-18T17:24:49.022Z,18.56
2023-05-18T17:27:18.113Z,18.33
2023-05-18T17:29:45.012Z,18.32
2023-05-18T17:32:11.960Z,18.38
2023-05-18T17:34:39.121Z,18.20
2023-05-18T17:37:06.035Z,18.35
2023-05-18T17:39:33.220Z,18.25
2023-05-18T17:42:00.331Z,18.18
2023-05-18T17:44:28.805Z,18.22
2023-05-18T17:46:56.800Z,18.29
2023-05-18T17:49:23.927Z,18.31
2023-05-18T17:51:51.158Z,18.20
2023-05-18T17:54:18.372Z,18.22
2023-05-18T17:56:45.297Z,17.92
2023-05-18T17:59:12.740Z,17.92
2023-05-18T18:01:41.215Z,17.84
2023-05-18T18:04:08.266Z,17.97
2023-05-18T18:06:35.954Z,18.02
2023-05-18T18:09:04.573Z,17.80
2023-05-18T18:11:32.787Z,17.78
2023-05-18T18:14:00.594Z,17.88
2023-05-18T18:16:27.826Z,17.85
2023-05-18T18:18:57.367Z,17.76
2023-05-18T18:21:25.227Z,17.70
2023-05-18T18:23:52.266Z,17.60
2023-05-18T18:26:23.076Z,17.46
2023-05-18T18:28:50.205Z,17.60
2023-05-18T18:31:17.674Z,17.43
2023-05-18T18:33:44.845Z,17.42
2023-05-18T18:36:13.754Z,17.25
2023-05-18T18:38:41.787Z,17.27
2023-05-18T18:41:13.361Z,17.18
2023-05-18T18:43:40.359Z,17.11
2023-05-18T18:46:07.448Z,17.14
2023-05-18T18:48:34.895Z,17.01
2023-05-18T18:51:03.814Z,17.06
2023-05-18T18:53:32.205Z,17.11
2023-05-18T18:56:00.505Z,17.04
2023-05-18T18:58:27.533Z,16.95
2023-05-18T19:00:54.830Z,16.91
2023-05-18T19:03:21.934Z,16.87
2023-05-18T19:05:49.761Z,16.82
2023-05-18T19:08:17.447Z,16.75
2023-05-18T19:10:45.692Z,16.61
2023-05-18T19:13:13.893Z,16.51
2023-05-18T19:15:41.072Z,16.33
2023-05-18T19:18:08.885Z,16.17
2023-05-18T19:20:40.744Z,16.15
2023-05-18T19:23:07.716Z,16.04
2023-05-18T19:25:35.366Z,15.97
2023-05-18T19:28:03.976Z,15.93
2023-05-18T19:30:31.721Z,15.94
2023-05-18T19:32:59.283Z,15.94
2023-05-18T19:35:26.290Z,15.90
2023-05-18T19:37:53.251Z,15.85
2023-05-18T19:40:21.327Z,15.70
2023-05-18T19:42:48.751Z,15.65
2023-05-18T19:45:17.034Z,15.57
2023-05-18T19:47:44.023Z,15.56
2023-05-18T19:50:11.687Z,15.49
2023-05-18T19:52:38.544Z,15.56
2023-05-18T19:55:07.256Z,15.43
2023-05-18T19:57:34.452Z,15.38
2023-05-18T20:00:01.986Z,15.32
2023-05-18T20:02:40.658Z,15.35
2023-05-18T20:05:08.405Z,15.35
2023-05-18T20:07:35.423Z,15.28
2023-05-18T20:10:02.601Z,15.29
2023-05-18T20:12:31.011Z,15.34
2023-05-18T20:14:58.076Z,15.27
2023-05-18T20:17:25.428Z,15.19
2023-05-18T20:19:53.833Z,15.25
2023-05-18T20:22:20.788Z,15.17
2023-05-18T20:24:49.297Z,15.15
2023-05-18T20:27:16.764Z,15.06
2023-05-18T20:29:51.191Z,15.05
2023-05-18T20:32:18.648Z,15.13
2023-05-18T20:34:45.651Z,15.08
2023-05-18T20:37:14.229Z,15.36
2023-05-18T20:39:42.115Z,15.09
2023-05-18T20:42:09.277Z,15.32
2023-05-18T20:44:36.732Z,15.13
2023-05-18T20:47:05.066Z,15.38
2023-05-18T20:49:32.143Z,15.10
2023-05-18T20:51:59.328Z,14.83
2023-05-18T20:54:28.196Z,14.73
2023-05-18T20:56:55.534Z,14.68
2023-05-18T20:59:23.095Z,14.60
2023-05-18T21:01:51.111Z,14.56
2023-05-18T21:04:19.534Z,14.32
2023-05-18T21:06:46.906Z,14.30
2023-05-18T21:09:13.872Z,14.37
2023-05-18T21:11:42.360Z,14.21
2023-05-18T21:14:09.469Z,14.64
2023-05-18T21:16:37.191Z,14.31
2023-05-18T21:19:04.500Z,14.17
2023-05-18T21:21:32.388Z,14.13
2023-05-18T21:24:00.747Z,14.02
2023-05-18T21:26:27.866Z,14.16
2023-05-18T21:28:56.648Z,14.05
2023-05-18T21:31:23.682Z,14.18
2023-05-18T21:33:50.860Z,14.22
2023-05-18T21:36:26.300Z,13.99
2023-05-18T21:38:53.862Z,13.97
2023-05-18T21:41:21.197Z,13.75
2023-05-18T21:43:48.538Z,13.92
2023-05-18T21:46:17.057Z,14.19
2023-05-18T21:48:44.128Z,14.04
2023-05-18T21:51:11.203Z,14.00
2023-05-18T21:53:38.632Z,13.76
2023-05-18T21:56:07.013Z,13.77
2023-05-18T21:58:34.184Z,13.75
2023-05-18T22:01:01.218Z,13.80
2023-05-18T22:03:29.589Z,13.85
2023-05-18T22:05:56.956Z,14.04
2023-05-18T22:08:24.183Z,13.70
2023-05-18T22:10:51.303Z,13.69
2023-05-18T22:13:18.595Z,13.89
2023-05-18T22:15:45.562Z,13.73
2023-05-18T22:18:12.715Z,14.29
2023-05-18T22:20:41.370Z,13.67
2023-05-18T22:23:08.311Z,13.55
2023-05-18T22:25:35.460Z,13.94
2023-05-18T22:28:02.632Z,13.46
2023-05-18T22:30:29.983Z,13.50
2023-05-18T22:32:56.997Z,13.26
2023-05-18T22:35:24.111Z,13.13
2023-05-18T22:37:52.437Z,13.14
2023-05-18T22:40:19.324Z,13.08
2023-05-18T22:42:47.834Z,13.25
2023-05-18T22:45:14.801Z,13.23
2023-05-18T22:47:42.210Z,13.24
2023-05-18T22:50:10.047Z,13.27
2023-05-18T22:52:37.509Z,13.14
2023-05-18T22:55:07.682Z,13.16
2023-05-18T22:57:35.238Z,13.22
2023-05-18T23:00:02.199Z,13.28
2023-05-18T23:02:29.716Z,13.37
2023-05-18T23:04:59.699Z,13.43
2023-05-18T23:07:26.719Z,13.46
2023-05-18T23:09:54.170Z,13.43
2023-05-18T23:12:22.600Z,13.45
2023-05-18T23:14:51.235Z,13.43
2023-05-18T23:17:18.147Z,13.37
2023-05-18T23:19:45.299Z,13.35
2023-05-18T23:22:13.000Z,13.30
2023-05-18T23:24:39.973Z,13.28
2023-05-18T23:27:06.898Z,13.19
2023-05-18T23:29:35.252Z,13.19
2023-05-18T23:32:02.923Z,13.10
2023-05-18T23:34:30.575Z,13.03
2023-05-18T23:37:03.138Z,12.89
2023-05-18T23:39:39.670Z,12.90
2023-05-18T23:42:08.601Z,12.93
2023-05-18T23:44:37.980Z,12.95
2023-05-18T23:47:05.959Z,12.95
2023-05-18T23:49:33.859Z,12.90
2023-05-18T23:52:02.669Z,12.84
2023-05-18T23:54:31.862Z,12.82
2023-05-18T23:57:00.000Z,12.78
2023-05-18T23:59:27.846Z,12.84
